Quiberon — FNQY — position and weather

sailwx.info

Track history (hours):
 
Tides and Currents Weather Stations Pressure Air Temp Water Temp Dewpoint Dewpoint Depression Visibility Wind Speed Wind Dir Waves Ship Positions

Quiberon

Operator: Brittany Ferries

Last reported at 2019-Jun-03 23:33 UTC. Time now 2019-Jun-17 19:18 UTC.
Position N 44°53' W 000°32'.
Warning: this ship's position is 13 days out of date.

Length 25 m; draft 4.8 m.

Type: Tug. MMSI: 228296800.

Date/timePositionNaut miles runAvg speedWind from/ knotsBaromVisibWave heightAir tempDewpointWater temp
2019-Jun-03 23:33N 44°53' W 000°32'0 0.0
2019-Jun-03 03:34N 44°53' W 000°32'0 0.0
2019-Jun-03 03:05N 44°53' W 000°32'0 0.0
2019-Jun-03 03:00N 44°53' W 000°32'0 0.0
2019-Jun-03 02:29N 44°53' W 000°32'0 0.0
2019-Jun-03 01:12N 44°53' W 000°32'0 0.0
2019-Jun-03 00:59N 44°53' W 000°32'0 0.0
2019-Jun-03 00:30N 44°53' W 000°32'0 0.0
2019-Jun-03 00:01N 44°53' W 000°32'0 0.0
2019-Jun-02 23:31N 44°53' W 000°32'0 0.0
2019-Jun-02 23:01N 44°53' W 000°32'0 0.0
2019-Jun-02 22:31N 44°53' W 000°32'0 0.0
2019-Jun-02 22:00N 44°53' W 000°32'0 0.0
2019-Jun-02 21:31N 44°53' W 000°32'0 0.0
2019-Jun-02 21:00N 44°53' W 000°32'0 0.0
2019-Jun-02 20:30N 44°53' W 000°32'0 0.0
2019-Jun-02 20:00N 44°53' W 000°32'0 0.0
2019-Jun-02 19:30N 44°53' W 000°32'0 0.0
2019-Jun-02 18:45N 44°53' W 000°32'0 0.0
2019-Jun-02 07:47N 44°53' W 000°32'0 0.1
2019-Jun-02 06:18N 44°53' W 000°32'1 3.2
2019-Jun-02 05:56N 44°55' W 000°33'0 0.1
2019-Jun-02 05:30N 44°55' W 000°32'4 7.0
2019-Jun-02 04:58N 44°58' W 000°32'2 3.4
2019-Jun-02 04:30N 44°60' W 000°33'0 0.0
2019-Jun-02 03:55N 44°60' W 000°33'2 5.0
2019-Jun-02 03:30N 44°58' W 000°32'4 7.2
2019-Jun-02 03:00N 44°54' W 000°32'6 0.1
2019-May-31 01:00N 45°00' W 000°34'0 0.0
2019-May-31 00:08N 45°00' W 000°34'0 0.0
2019-May-31 00:00N 45°00' W 000°34'0 0.0
2019-May-30 23:30N 45°00' W 000°34'0 0.0
2019-May-30 22:59N 45°00' W 000°34'0 0.0
2019-May-30 22:30N 45°00' W 000°34'0 0.0
2019-May-30 22:00N 45°00' W 000°34'  
2019-May-28 06:44N 45°20' W 000°47'2 8.2
2019-May-28 06:30N 45°22' W 000°48'4 8.6
2019-May-28 06:00N 45°25' W 000°52'4 8.8
2019-May-28 05:30N 45°28' W 000°56'4 8.9
2019-May-28 05:00N 45°32' W 001°00'2 3.4
2019-May-28 04:30N 45°32' W 001°02'1 2.5
2019-May-28 04:01N 45°34' W 001°02'2 4.3
2019-May-28 03:31N 45°36' W 001°03'2 3.8
2019-May-28 03:01N 45°34' W 001°02'3 5.3
2019-May-28 02:30N 45°32' W 000°60'510.6
2019-May-28 02:01N 45°28' W 000°55'510.5
2019-May-28 01:30N 45°24' W 000°50'610.2
2019-May-28 00:57N 45°19' W 000°46'  
2019-May-25 18:01N 45°22' W 000°49'012.8
2019-May-25 18:00N 45°22' W 000°49'712.9
2019-May-25 17:30N 45°27' W 000°54'613.0
2019-May-25 17:00N 45°32' W 001°00'1 2.8
2019-May-25 16:30N 45°32' W 001°02'0 0.2
2019-May-25 16:00N 45°32' W 001°02'0 0.0
2019-May-25 15:30N 45°32' W 001°02'0 0.2
2019-May-25 15:00N 45°32' W 001°02'1 1.4
2019-May-25 14:30N 45°33' W 001°02'3 6.7
2019-May-25 14:00N 45°30' W 000°58'713.7
2019-May-25 13:30N 45°25' W 000°52'  
Track history (hours):
 
Tides and Currents Weather Stations Pressure Air Temp Water Temp Dewpoint Dewpoint Depression Visibility Wind Speed Wind Dir Waves Ship Positions

Quiberon

Operator: Brittany Ferries

Last reported at 2019-Jun-03 23:33 UTC. Time now 2019-Jun-17 19:18 UTC.
Position N 44°53' W 000°32'.
Warning: this ship's position is 13 days out of date.

Length 25 m; draft 4.8 m.

Type: Tug. MMSI: 228296800.

Date/timePositionNaut miles runAvg speedWind from/ knotsBaromVisibWave heightAir tempDewpointWater temp
2019-Jun-03 23:33N 44°53' W 000°32'0 0.0
2019-Jun-03 03:34N 44°53' W 000°32'0 0.0
2019-Jun-03 03:05N 44°53' W 000°32'0 0.0
2019-Jun-03 03:00N 44°53' W 000°32'0 0.0
2019-Jun-03 02:29N 44°53' W 000°32'0 0.0
2019-Jun-03 01:12N 44°53' W 000°32'0 0.0
2019-Jun-03 00:59N 44°53' W 000°32'0 0.0
2019-Jun-03 00:30N 44°53' W 000°32'0 0.0
2019-Jun-03 00:01N 44°53' W 000°32'0 0.0
2019-Jun-02 23:31N 44°53' W 000°32'0 0.0
2019-Jun-02 23:01N 44°53' W 000°32'0 0.0
2019-Jun-02 22:31N 44°53' W 000°32'0 0.0
2019-Jun-02 22:00N 44°53' W 000°32'0 0.0
2019-Jun-02 21:31N 44°53' W 000°32'0 0.0
2019-Jun-02 21:00N 44°53' W 000°32'0 0.0
2019-Jun-02 20:30N 44°53' W 000°32'0 0.0
2019-Jun-02 20:00N 44°53' W 000°32'0 0.0
2019-Jun-02 19:30N 44°53' W 000°32'0 0.0
2019-Jun-02 18:45N 44°53' W 000°32'0 0.0
2019-Jun-02 07:47N 44°53' W 000°32'0 0.1
2019-Jun-02 06:18N 44°53' W 000°32'1 3.2
2019-Jun-02 05:56N 44°55' W 000°33'0 0.1
2019-Jun-02 05:30N 44°55' W 000°32'4 7.0
2019-Jun-02 04:58N 44°58' W 000°32'2 3.4
2019-Jun-02 04:30N 44°60' W 000°33'0 0.0
2019-Jun-02 03:55N 44°60' W 000°33'2 5.0
2019-Jun-02 03:30N 44°58' W 000°32'4 7.2
2019-Jun-02 03:00N 44°54' W 000°32'6 0.1
2019-May-31 01:00N 45°00' W 000°34'0 0.0
2019-May-31 00:08N 45°00' W 000°34'0 0.0
2019-May-31 00:00N 45°00' W 000°34'0 0.0
2019-May-30 23:30N 45°00' W 000°34'0 0.0
2019-May-30 22:59N 45°00' W 000°34'0 0.0
2019-May-30 22:30N 45°00' W 000°34'0 0.0
2019-May-30 22:00N 45°00' W 000°34'  
2019-May-28 06:44N 45°20' W 000°47'2 8.2
2019-May-28 06:30N 45°22' W 000°48'4 8.6
2019-May-28 06:00N 45°25' W 000°52'4 8.8
2019-May-28 05:30N 45°28' W 000°56'4 8.9
2019-May-28 05:00N 45°32' W 001°00'2 3.4
2019-May-28 04:30N 45°32' W 001°02'1 2.5
2019-May-28 04:01N 45°34' W 001°02'2 4.3
2019-May-28 03:31N 45°36' W 001°03'2 3.8
2019-May-28 03:01N 45°34' W 001°02'3 5.3
2019-May-28 02:30N 45°32' W 000°60'510.6
2019-May-28 02:01N 45°28' W 000°55'510.5
2019-May-28 01:30N 45°24' W 000°50'610.2
2019-May-28 00:57N 45°19' W 000°46'  
2019-May-25 18:01N 45°22' W 000°49'012.8
2019-May-25 18:00N 45°22' W 000°49'712.9
2019-May-25 17:30N 45°27' W 000°54'613.0
2019-May-25 17:00N 45°32' W 001°00'1 2.8
2019-May-25 16:30N 45°32' W 001°02'0 0.2
2019-May-25 16:00N 45°32' W 001°02'0 0.0
2019-May-25 15:30N 45°32' W 001°02'0 0.2
2019-May-25 15:00N 45°32' W 001°02'1 1.4
2019-May-25 14:30N 45°33' W 001°02'3 6.7
2019-May-25 14:00N 45°30' W 000°58'713.7
2019-May-25 13:30N 45°25' W 000°52'  

Dump ship's entire track history